sensor_id;sensor_type;location;lat;lon;timestamp;pressure;altitude;pressure_sealevel;temperature;humidity
77662;BME280;69666;52.136;5.424;2023-12-28T00:00:31;100819.66;;;8.35;100.00
77662;BME280;69666;52.136;5.424;2023-12-28T00:03:01;100820.09;;;8.38;100.00
77662;BME280;69666;52.136;5.424;2023-12-28T00:05:30;100820.09;;;8.38;100.00
77662;BME280;69666;52.136;5.424;2023-12-28T00:08:00;100823.19;;;8.42;100.00
77662;BME280;69666;52.136;5.424;2023-12-28T00:10:29;100823.84;;;8.44;100.00
77662;BME280;69666;52.136;5.424;2023-12-28T00:12:59;100837.47;;;8.49;100.00
77662;BME280;69666;52.136;5.424;2023-12-28T00:15:28;100842.44;;;8.52;100.00
77662;BME280;69666;52.136;5.424;2023-12-28T00:17:58;100845.38;;;8.57;100.00
77662;BME280;69666;52.136;5.424;2023-12-28T00:20:28;100836.47;;;8.56;100.00
77662;BME280;69666;52.136;5.424;2023-12-28T00:22:57;100857.34;;;8.61;100.00
77662;BME280;69666;52.136;5.424;2023-12-28T00:25:27;100849.09;;;8.62;100.00
77662;BME280;69666;52.136;5.424;2023-12-28T00:27:56;100850.56;;;8.65;100.00
77662;BME280;69666;52.136;5.424;2023-12-28T00:30:26;100858.22;;;8.68;100.00
77662;BME280;69666;52.136;5.424;2023-12-28T00:32:56;100857.81;;;8.71;100.00
77662;BME280;69666;52.136;5.424;2023-12-28T00:35:25;100861.31;;;8.72;100.00
77662;BME280;69666;52.136;5.424;2023-12-28T00:37:55;100865.66;;;8.73;100.00
77662;BME280;69666;52.136;5.424;2023-12-28T00:40:25;100862.78;;;8.74;100.00
77662;BME280;69666;52.136;5.424;2023-12-28T00:42:54;100871.88;;;8.73;100.00
77662;BME280;69666;52.136;5.424;2023-12-28T00:45:25;100877.47;;;8.78;100.00
77662;BME280;69666;52.136;5.424;2023-12-28T00:47:54;100876.44;;;8.79;100.00
77662;BME280;69666;52.136;5.424;2023-12-28T00:50:26;100875.41;;;8.80;100.00
77662;BME280;69666;52.136;5.424;2023-12-28T00:52:59;100883.47;;;8.80;100.00
77662;BME280;69666;52.136;5.424;2023-12-28T00:55:29;100876.22;;;8.74;100.00
77662;BME280;69666;52.136;5.424;2023-12-28T00:57:58;100882.59;;;8.73;100.00
77662;BME280;69666;52.136;5.424;2023-12-28T01:00:28;100886.31;;;8.72;100.00
77662;BME280;69666;52.136;5.424;2023-12-28T01:02:58;100881.34;;;8.69;100.00
77662;BME280;69666;52.136;5.424;2023-12-28T01:05:27;100885.69;;;8.70;100.00
77662;BME280;69666;52.136;5.424;2023-12-28T01:07:57;100875.59;;;8.72;100.00
77662;BME280;69666;52.136;5.424;2023-12-28T01:10:28;100874.56;;;8.73;100.00
77662;BME280;69666;52.136;5.424;2023-12-28T01:12:57;100876.81;;;8.70;100.00
77662;BME280;69666;52.136;5.424;2023-12-28T01:15:26;100868.94;;;8.68;100.00
77662;BME280;69666;52.136;5.424;2023-12-28T01:17:57;100869.97;;;8.67;100.00
77662;BME280;69666;52.136;5.424;2023-12-28T01:20:26;100886.69;;;8.62;100.00
77662;BME280;69666;52.136;5.424;2023-12-28T01:22:56;100893.09;;;8.61;100.00
77662;BME280;69666;52.136;5.424;2023-12-28T01:25:25;100892.03;;;8.56;100.00
77662;BME280;69666;52.136;5.424;2023-12-28T01:27:55;100890.19;;;8.56;100.00
77662;BME280;69666;52.136;5.424;2023-12-28T01:30:25;100897.63;;;8.54;100.00
77662;BME280;69666;52.136;5.424;2023-12-28T01:32:54;100899.66;;;8.52;100.00
77662;BME280;69666;52.136;5.424;2023-12-28T01:35:24;100897.19;;;8.51;100.00
77662;BME280;69666;52.136;5.424;2023-12-28T01:37:54;100904.22;;;8.52;100.00
77662;BME280;69666;52.136;5.424;2023-12-28T01:40:24;100894.28;;;8.46;100.00
77662;BME280;69666;52.136;5.424;2023-12-28T01:42:53;100894.06;;;8.47;100.00
77662;BME280;69666;52.136;5.424;2023-12-28T01:45:23;100891.59;;;8.46;100.00
77662;BME280;69666;52.136;5.424;2023-12-28T01:47:54;100901.50;;;8.45;100.00
77662;BME280;69666;52.136;5.424;2023-12-28T01:50:27;100889.94;;;8.45;100.00
77662;BME280;69666;52.136;5.424;2023-12-28T01:53:00;100889.09;;;8.44;100.00
77662;BME280;69666;52.136;5.424;2023-12-28T01:55:30;100894.88;;;8.41;100.00
77662;BME280;69666;52.136;5.424;2023-12-28T01:58:00;100906.84;;;8.39;100.00
77662;BME280;69666;52.136;5.424;2023-12-28T02:00:31;100905.81;;;8.40;100.00
77662;BME280;69666;52.136;5.424;2023-12-28T02:03:02;100905.19;;;8.38;100.00
77662;BME280;69666;52.136;5.424;2023-12-28T02:05:33;100912.63;;;8.42;100.00
77662;BME280;69666;52.136;5.424;2023-12-28T02:08:02;100905.59;;;8.41;100.00
77662;BME280;69666;52.136;5.424;2023-12-28T02:10:32;100915.13;;;8.44;100.00
77662;BME280;69666;52.136;5.424;2023-12-28T02:13:02;100912.19;;;8.39;100.00
77662;BME280;69666;52.136;5.424;2023-12-28T02:15:31;100902.72;;;8.43;100.00
77662;BME280;69666;52.136;5.424;2023-12-28T02:18:16;100895.09;;;8.46;100.00
77662;BME280;69666;52.136;5.424;2023-12-28T02:20:50;100902.72;;;8.43;100.00
77662;BME280;69666;52.136;5.424;2023-12-28T02:23:20;100902.72;;;8.43;100.00
77662;BME280;69666;52.136;5.424;2023-12-28T02:25:49;100892.63;;;8.45;100.00
77662;BME280;69666;52.136;5.424;2023-12-28T02:28:19;100884.97;;;8.42;100.00
77662;BME280;69666;52.136;5.424;2023-12-28T02:30:48;100889.94;;;8.45;100.00
77662;BME280;69666;52.136;5.424;2023-12-28T02:33:36;100882.69;;;8.45;100.00
77662;BME280;69666;52.136;5.424;2023-12-28T02:36:11;100885.81;;;8.49;100.00
77662;BME280;69666;52.136;5.424;2023-12-28T02:38:45;100882.72;;;8.52;100.00
77662;BME280;69666;52.136;5.424;2023-12-28T02:41:17;100896.78;;;8.54;100.00
77662;BME280;69666;52.136;5.424;2023-12-28T02:43:50;100879.88;;;8.60;100.00
77662;BME280;69666;52.136;5.424;2023-12-28T02:46:20;100862.09;;;8.59;100.00
77662;BME280;69666;52.136;5.424;2023-12-28T02:48:49;100866.44;;;8.60;100.00
77662;BME280;69666;52.136;5.424;2023-12-28T02:51:21;100869.34;;;8.65;100.00
77662;BME280;69666;52.136;5.424;2023-12-28T02:53:50;100865.63;;;8.66;100.00
77662;BME280;69666;52.136;5.424;2023-12-28T02:56:20;100863.78;;;8.67;100.00
77662;BME280;69666;52.136;5.424;2023-12-28T02:58:49;100858.22;;;8.68;100.00
77662;BME280;69666;52.136;5.424;2023-12-28T03:01:19;100858.63;;;8.65;100.00
77662;BME280;69666;52.136;5.424;2023-12-28T03:03:50;100865.63;;;8.66;100.00
77662;BME280;69666;52.136;5.424;2023-12-28T03:06:19;100846.44;;;8.69;100.00
77662;BME280;69666;52.136;5.424;2023-12-28T03:08:49;100864.41;;;8.69;100.00
77662;BME280;69666;52.136;5.424;2023-12-28T03:11:18;100862.56;;;8.69;100.00
77662;BME280;69666;52.136;5.424;2023-12-28T03:13:48;100858.84;;;8.70;100.00
77662;BME280;69666;52.136;5.424;2023-12-28T03:16:18;100861.53;;;8.70;100.00
77662;BME280;69666;52.136;5.424;2023-12-28T03:18:47;100864.84;;;8.72;100.00
77662;BME280;69666;52.136;5.424;2023-12-28T03:21:17;100870.84;;;8.74;100.00
77662;BME280;69666;52.136;5.424;2023-12-28T03:23:46;100871.25;;;8.78;100.00
77662;BME280;69666;52.136;5.424;2023-12-28T03:26:16;100859.91;;;8.82;100.00
77662;BME280;69666;52.136;5.424;2023-12-28T03:28:45;100872.50;;;8.82;100.00
77662;BME280;69666;52.136;5.424;2023-12-28T03:31:15;100889.03;;;8.85;100.00
77662;BME280;69666;52.136;5.424;2023-12-28T03:33:44;100860.91;;;8.88;100.00
77662;BME280;69666;52.136;5.424;2023-12-28T03:36:18;100873.13;;;8.90;100.00
77662;BME280;69666;52.136;5.424;2023-12-28T03:38:48;100864.88;;;8.92;100.00
77662;BME280;69666;52.136;5.424;2023-12-28T03:41:19;100860.75;;;8.96;100.00
77662;BME280;69666;52.136;5.424;2023-12-28T03:43:50;100865.06;;;8.97;100.00
77662;BME280;69666;52.136;5.424;2023-12-28T03:46:19;100844.22;;;8.99;100.00
77662;BME280;69666;52.136;5.424;2023-12-28T03:48:49;100856.63;;;9.00;100.00
77662;BME280;69666;52.136;5.424;2023-12-28T03:51:18;100853.09;;;9.00;100.00
77662;BME280;69666;52.136;5.424;2023-12-28T03:53:48;100859.09;;;9.02;100.00
77662;BME280;69666;52.136;5.424;2023-12-28T03:56:28;100851.44;;;9.05;100.00
77662;BME280;69666;52.136;5.424;2023-12-28T03:58:58;100843.59;;;9.04;100.00
77662;BME280;69666;52.136;5.424;2023-12-28T04:01:28;100849.38;;;9.01;100.00
77662;BME280;69666;52.136;5.424;2023-12-28T04:03:58;100852.06;;;9.01;100.00
77662;BME280;69666;52.136;5.424;2023-12-28T04:06:27;100844.41;;;8.98;100.00
77662;BME280;69666;52.136;5.424;2023-12-28T04:08:58;100848.97;;;8.97;100.00
77662;BME280;69666;52.136;5.424;2023-12-28T04:11:27;100853.50;;;8.96;100.00
77662;BME280;69666;52.136;5.424;2023-12-28T04:13:57;100849.56;;;8.92;100.00
77662;BME280;69666;52.136;5.424;2023-12-28T04:16:27;100858.03;;;8.89;100.00
77662;BME280;69666;52.136;5.424;2023-12-28T04:18:57;100867.53;;;8.85;100.00
77662;BME280;69666;52.136;5.424;2023-12-28T04:21:26;100865.47;;;8.87;100.00
77662;BME280;69666;52.136;5.424;2023-12-28T04:23:56;100857.00;;;8.84;100.00
77662;BME280;69666;52.136;5.424;2023-12-28T04:26:27;100856.59;;;8.80;100.00
77662;BME280;69666;52.136;5.424;2023-12-28T04:28:56;100851.84;;;8.82;100.00
77662;BME280;69666;52.136;5.424;2023-12-28T04:31:26;100871.06;;;8.79;100.00
77662;BME280;69666;52.136;5.424;2023-12-28T04:33:55;100856.56;;;8.74;100.00
77662;BME280;69666;52.136;5.424;2023-12-28T04:36:25;100859.06;;;8.75;100.00
77662;BME280;69666;52.136;5.424;2023-12-28T04:38:54;100846.88;;;8.79;100.00
77662;BME280;69666;52.136;5.424;2023-12-28T04:41:25;100851.63;;;8.77;100.00
77662;BME280;69666;52.136;5.424;2023-12-28T04:43:54;100858.25;;;8.81;100.00
77662;BME280;69666;52.136;5.424;2023-12-28T04:46:24;100865.47;;;8.81;100.00
77662;BME280;69666;52.136;5.424;2023-12-28T04:48:53;100867.53;;;8.85;100.00
77662;BME280;69666;52.136;5.424;2023-12-28T04:51:23;100855.53;;;8.88;100.00
77662;BME280;69666;52.136;5.424;2023-12-28T04:53:52;100854.94;;;8.92;100.00
77662;BME280;69666;52.136;5.424;2023-12-28T04:56:22;100866.31;;;8.94;100.00
77662;BME280;69666;52.136;5.424;2023-12-28T04:58:51;100847.09;;;8.98;100.00
77662;BME280;69666;52.136;5.424;2023-12-28T05:01:21;100857.84;;;8.98;100.00
77662;BME280;69666;52.136;5.424;2023-12-28T05:03:50;100857.44;;;9.01;100.00
77662;BME280;69666;52.136;5.424;2023-12-28T05:06:22;100850.41;;;9.06;100.00
77662;BME280;69666;52.136;5.424;2023-12-28T05:08:51;100859.72;;;9.04;100.00
77662;BME280;69666;52.136;5.424;2023-12-28T05:11:21;100871.09;;;9.06;100.00
77662;BME280;69666;52.136;5.424;2023-12-28T05:13:50;100865.72;;;9.06;100.00
77662;BME280;69666;52.136;5.424;2023-12-28T05:16:20;100878.94;;;9.07;100.00
77662;BME280;69666;52.136;5.424;2023-12-28T05:18:49;100873.59;;;9.14;100.00
77662;BME280;69666;52.136;5.424;2023-12-28T05:21:19;100874.22;;;9.16;100.00
77662;BME280;69666;52.136;5.424;2023-12-28T05:23:49;100865.31;;;9.15;100.00
77662;BME280;69666;52.136;5.424;2023-12-28T05:26:18;100866.97;;;9.16;100.00
77662;BME280;69666;52.136;5.424;2023-12-28T05:28:48;100864.72;;;9.20;100.00
77662;BME280;69666;52.136;5.424;2023-12-28T05:31:17;100871.53;;;9.22;100.00
77662;BME280;69666;52.136;5.424;2023-12-28T05:33:47;100872.38;;;9.23;100.00
77662;BME280;69666;52.136;5.424;2023-12-28T05:36:16;100874.44;;;9.21;100.00
77662;BME280;69666;52.136;5.424;2023-12-28T05:38:46;100867.19;;;9.28;100.00
77662;BME280;69666;52.136;5.424;2023-12-28T05:41:15;100875.47;;;9.33;100.00
77662;BME280;69666;52.136;5.424;2023-12-28T05:43:45;100871.13;;;9.32;100.00
77662;BME280;69666;52.136;5.424;2023-12-28T05:46:14;100870.31;;;9.32;100.00
77662;BME280;69666;52.136;5.424;2023-12-28T05:48:44;100863.06;;;9.32;100.00
77662;BME280;69666;52.136;5.424;2023-12-28T05:51:13;100869.06;;;9.34;100.00
77662;BME280;69666;52.136;5.424;2023-12-28T05:53:43;100878.16;;;9.33;100.00
77662;BME280;69666;52.136;5.424;2023-12-28T05:56:12;100863.25;;;9.37;100.00
77662;BME280;69666;52.136;5.424;2023-12-28T05:58:42;100872.75;;;9.40;100.00
77662;BME280;69666;52.136;5.424;2023-12-28T06:01:11;100865.72;;;9.39;100.00
77662;BME280;69666;52.136;5.424;2023-12-28T06:03:41;100856.63;;;9.40;100.00
77662;BME280;69666;52.136;5.424;2023-12-28T06:06:10;100881.88;;;9.45;100.00
77662;BME280;69666;52.136;5.424;2023-12-28T06:08:40;100887.66;;;9.42;100.00
77662;BME280;69666;52.136;5.424;2023-12-28T06:11:09;100886.63;;;9.43;100.00
77662;BME280;69666;52.136;5.424;2023-12-28T06:13:38;100884.16;;;9.48;100.00
77662;BME280;69666;52.136;5.424;2023-12-28T06:16:09;100882.50;;;9.47;100.00
77662;BME280;69666;52.136;5.424;2023-12-28T06:18:38;100889.53;;;9.48;100.00
77662;BME280;69666;52.136;5.424;2023-12-28T06:21:08;100884.56;;;9.45;100.00
77662;BME280;69666;52.136;5.424;2023-12-28T06:23:38;100884.34;;;9.47;100.00
77662;BME280;69666;52.136;5.424;2023-12-28T06:26:07;100887.44;;;9.50;100.00
77662;BME280;69666;52.136;5.424;2023-12-28T06:28:37;100885.38;;;9.52;100.00
77662;BME280;69666;52.136;5.424;2023-12-28T06:31:06;100889.94;;;9.52;100.00
77662;BME280;69666;52.136;5.424;2023-12-28T06:33:36;100898.84;;;9.52;100.00
77662;BME280;69666;52.136;5.424;2023-12-28T06:36:07;100892.84;;;9.50;100.00
77662;BME280;69666;52.136;5.424;2023-12-28T06:38:37;100904.63;;;9.49;100.00
77662;BME280;69666;52.136;5.424;2023-12-28T06:41:13;100908.56;;;9.53;100.00
77662;BME280;69666;52.136;5.424;2023-12-28T06:43:42;100898.84;;;9.52;100.00
77662;BME280;69666;52.136;5.424;2023-12-28T06:46:12;100900.91;;;9.50;100.00
77662;BME280;69666;52.136;5.424;2023-12-28T06:48:41;100918.69;;;9.51;100.00
77662;BME280;69666;52.136;5.424;2023-12-28T06:51:21;100903.59;;;9.50;100.00
77662;BME280;69666;52.136;5.424;2023-12-28T06:53:51;100912.28;;;9.52;100.00
77662;BME280;69666;52.136;5.424;2023-12-28T06:56:20;100910.41;;;9.53;100.00
77662;BME280;69666;52.136;5.424;2023-12-28T06:58:49;100911.25;;;9.53;100.00
77662;BME280;69666;52.136;5.424;2023-12-28T07:01:19;100913.94;;;9.53;100.00
77662;BME280;69666;52.136;5.424;2023-12-28T07:03:48;100915.59;;;9.54;100.00
77662;BME280;69666;52.136;5.424;2023-12-28T07:06:18;100925.53;;;9.54;100.00
77662;BME280;69666;52.136;5.424;2023-12-28T07:08:47;100934.63;;;9.53;100.00
77662;BME280;69666;52.136;5.424;2023-12-28T07:11:17;100947.25;;;9.52;100.00
77662;BME280;69666;52.136;5.424;2023-12-28T07:13:47;100921.38;;;9.51;100.00
77662;BME280;69666;52.136;5.424;2023-12-28T07:16:16;100925.31;;;9.49;100.00
77662;BME280;69666;52.136;5.424;2023-12-28T07:18:46;100929.03;;;9.41;100.00
77662;BME280;69666;52.136;5.424;2023-12-28T07:21:16;100933.56;;;9.41;100.00
77662;BME280;69666;52.136;5.424;2023-12-28T07:23:45;100950.94;;;9.38;100.00
77662;BME280;69666;52.136;5.424;2023-12-28T07:26:17;100948.47;;;9.37;100.00
77662;BME280;69666;52.136;5.424;2023-12-28T07:28:47;100942.69;;;9.33;100.00
77662;BME280;69666;52.136;5.424;2023-12-28T07:31:24;100949.31;;;9.31;100.00
77662;BME280;69666;52.136;5.424;2023-12-28T07:33:54;100955.91;;;9.28;100.00
77662;BME280;69666;52.136;5.424;2023-12-28T07:36:24;100952.78;;;9.18;100.00
77662;BME280;69666;52.136;5.424;2023-12-28T07:38:53;100962.50;;;9.19;100.00
77662;BME280;69666;52.136;5.424;2023-12-28T07:41:23;100961.06;;;9.16;100.00
77662;BME280;69666;52.136;5.424;2023-12-28T07:43:52;100966.63;;;9.08;100.00
77662;BME280;69666;52.136;5.424;2023-12-28T07:46:21;100952.97;;;9.10;100.00
77662;BME280;69666;52.136;5.424;2023-12-28T07:48:51;100974.28;;;9.11;100.00
77662;BME280;69666;52.136;5.424;2023-12-28T07:51:21;100978.63;;;9.12;100.00
77662;BME280;69666;52.136;5.424;2023-12-28T07:53:50;100982.56;;;9.16;100.00
77662;BME280;69666;52.136;5.424;2023-12-28T07:56:19;100993.34;;;9.23;100.00
77662;BME280;69666;52.136;5.424;2023-12-28T07:58:49;100989.41;;;9.19;100.00
77662;BME280;69666;52.136;5.424;2023-12-28T08:01:18;100976.81;;;9.26;100.00
77662;BME280;69666;52.136;5.424;2023-12-28T08:03:48;100994.78;;;9.25;100.00
77662;BME280;69666;52.136;5.424;2023-12-28T08:06:18;100993.56;;;9.28;100.00
77662;BME280;69666;52.136;5.424;2023-12-28T08:08:47;100975.38;;;9.30;100.00
77662;BME280;69666;52.136;5.424;2023-12-28T08:11:17;100974.13;;;9.33;100.00
77662;BME280;69666;52.136;5.424;2023-12-28T08:13:46;100989.88;;;9.36;100.00
77662;BME280;69666;52.136;5.424;2023-12-28T08:16:16;100976.19;;;9.37;100.00
77662;BME280;69666;52.136;5.424;2023-12-28T08:18:45;100964.19;;;9.40;100.00
77662;BME280;69666;52.136;5.424;2023-12-28T08:21:15;100971.66;;;9.44;100.00
77662;BME280;69666;52.136;5.424;2023-12-28T08:23:44;100978.28;;;9.48;100.00
77662;BME280;69666;52.136;5.424;2023-12-28T08:26:14;100976.00;;;9.52;100.00
77662;BME280;69666;52.136;5.424;2023-12-28T08:28:43;100978.50;;;9.53;100.00
77662;BME280;69666;52.136;5.424;2023-12-28T08:31:13;101001.47;;;9.56;100.00
77662;BME280;69666;52.136;5.424;2023-12-28T08:33:42;100989.47;;;9.58;100.00
77662;BME280;69666;52.136;5.424;2023-12-28T08:36:12;100998.16;;;9.60;100.00
77662;BME280;69666;52.136;5.424;2023-12-28T08:38:42;100978.31;;;9.61;99.33
77662;BME280;69666;52.136;5.424;2023-12-28T08:41:22;100989.28;;;9.67;100.00
77662;BME280;69666;52.136;5.424;2023-12-28T08:43:55;100972.94;;;9.68;99.92
77662;BME280;69666;52.136;5.424;2023-12-28T08:46:24;100991.56;;;9.76;100.00
77662;BME280;69666;52.136;5.424;2023-12-28T08:48:53;101001.09;;;9.79;100.00
77662;BME280;69666;52.136;5.424;2023-12-28T08:51:23;101001.50;;;9.76;100.00
77662;BME280;69666;52.136;5.424;2023-12-28T08:53:52;101008.13;;;9.80;99.62
77662;BME280;69666;52.136;5.424;2023-12-28T08:56:23;100994.06;;;9.78;100.00
77662;BME280;69666;52.136;5.424;2023-12-28T08:58:53;101013.91;;;9.77;100.00
77662;BME280;69666;52.136;5.424;2023-12-28T09:01:23;101027.38;;;9.77;100.00
77662;BME280;69666;52.136;5.424;2023-12-28T09:03:58;101017.22;;;9.79;100.00
77662;BME280;69666;52.136;5.424;2023-12-28T09:06:28;101016.41;;;9.85;100.00
77662;BME280;69666;52.136;5.424;2023-12-28T09:08:58;101026.72;;;9.88;100.00
77662;BME280;69666;52.136;5.424;2023-12-28T09:11:28;101020.13;;;9.84;99.38
77662;BME280;69666;52.136;5.424;2023-12-28T09:13:57;101011.03;;;9.85;99.12
77662;BME280;69666;52.136;5.424;2023-12-28T09:16:27;101041.47;;;9.85;99.79
77662;BME280;69666;52.136;5.424;2023-12-28T09:18:57;101014.75;;;9.84;99.79
77662;BME280;69666;52.136;5.424;2023-12-28T09:21:27;101033.19;;;9.87;100.00
77662;BME280;69666;52.136;5.424;2023-12-28T09:23:56;101021.34;;;9.88;100.00
77662;BME280;69666;52.136;5.424;2023-12-28T09:26:26;101018.06;;;9.86;98.13
77662;BME280;69666;52.136;5.424;2023-12-28T09:28:55;101014.53;;;9.92;99.29
77662;BME280;69666;52.136;5.424;2023-12-28T09:31:25;101031.28;;;9.94;99.92
77662;BME280;69666;52.136;5.424;2023-12-28T09:33:54;101011.41;;;9.95;100.00
77662;BME280;69666;52.136;5.424;2023-12-28T09:36:24;101041.03;;;9.95;99.73
77662;BME280;69666;52.136;5.424;2023-12-28T09:38:53;101040.00;;;9.96;99.65
77662;BME280;69666;52.136;5.424;2023-12-28T09:41:26;101031.50;;;9.99;99.21
77662;BME280;69666;52.136;5.424;2023-12-28T09:44:12;101041.03;;;10.02;98.87
77662;BME280;69666;52.136;5.424;2023-12-28T09:46:42;101038.75;;;10.05;98.62
77662;BME280;69666;52.136;5.424;2023-12-28T09:49:12;101059.47;;;10.11;98.23
77662;BME280;69666;52.136;5.424;2023-12-28T09:51:42;101057.00;;;10.16;97.89
77662;BME280;69666;52.136;5.424;2023-12-28T09:54:11;101055.75;;;10.19;97.98
77662;BME280;69666;52.136;5.424;2023-12-28T09:56:41;101063.44;;;10.22;98.48
77662;BME280;69666;52.136;5.424;2023-12-28T09:59:11;101056.19;;;10.22;97.21
77662;BME280;69666;52.136;5.424;2023-12-28T10:01:41;101065.31;;;10.28;98.48
77662;BME280;69666;52.136;5.424;2023-12-28T10:04:11;101064.69;;;10.33;98.54
77662;BME280;69666;52.136;5.424;2023-12-28T10:06:40;101058.28;;;10.34;96.96
77662;BME280;69666;52.136;5.424;2023-12-28T10:09:10;101059.94;;;10.35;97.55
77662;BME280;69666;52.136;5.424;2023-12-28T10:11:39;101067.81;;;10.36;97.45
77662;BME280;69666;52.136;5.424;2023-12-28T10:14:10;101078.53;;;10.43;98.20
77662;BME280;69666;52.136;5.424;2023-12-28T10:16:42;101072.13;;;10.44;98.27
77662;BME280;69666;52.136;5.424;2023-12-28T10:19:11;101052.22;;;10.45;97.40
77662;BME280;69666;52.136;5.424;2023-12-28T10:21:41;101080.19;;;10.44;97.66
77662;BME280;69666;52.136;5.424;2023-12-28T10:24:12;101063.44;;;10.35;96.16
77662;BME280;69666;52.136;5.424;2023-12-28T10:26:41;101070.69;;;10.35;96.93
77662;BME280;69666;52.136;5.424;2023-12-28T10:29:11;101054.13;;;10.38;97.25
77662;BME280;69666;52.136;5.424;2023-12-28T10:31:42;101077.75;;;10.36;96.09
77662;BME280;69666;52.136;5.424;2023-12-28T10:34:12;101057.03;;;10.36;96.61
77662;BME280;69666;52.136;5.424;2023-12-28T10:36:42;101064.47;;;10.34;97.32
77662;BME280;69666;52.136;5.424;2023-12-28T10:39:19;101065.72;;;10.32;96.99
77662;BME280;69666;52.136;5.424;2023-12-28T10:41:50;101056.63;;;10.33;97.08
77662;BME280;69666;52.136;5.424;2023-12-28T10:44:23;101071.75;;;10.34;96.92
77662;BME280;69666;52.136;5.424;2023-12-28T10:47:01;101064.06;;;10.37;96.79
77662;BME280;69666;52.136;5.424;2023-12-28T10:49:33;101079.78;;;10.40;96.14
77662;BME280;69666;52.136;5.424;2023-12-28T10:52:09;101076.47;;;10.45;95.82
77662;BME280;69666;52.136;5.424;2023-12-28T10:54:44;101057.81;;;10.56;97.30
77662;BME280;69666;52.136;5.424;2023-12-28T10:57:30;101048.25;;;10.67;97.38
77662;BME280;69666;52.136;5.424;2023-12-28T11:00:12;101058.22;;;10.67;94.98
77662;BME280;69666;52.136;5.424;2023-12-28T11:02:47;101070.22;;;10.71;95.65
77662;BME280;69666;52.136;5.424;2023-12-28T11:05:21;101056.97;;;10.69;94.64
77662;BME280;69666;52.136;5.424;2023-12-28T11:07:51;101069.19;;;10.72;94.05
77662;BME280;69666;52.136;5.424;2023-12-28T11:10:25;101062.56;;;10.74;96.00
77662;BME280;69666;52.136;5.424;2023-12-28T11:12:57;101056.13;;;10.75;96.26
77662;BME280;69666;52.136;5.424;2023-12-28T11:15:28;101050.75;;;10.69;94.42
77662;BME280;69666;52.136;5.424;2023-12-28T11:17:59;101046.41;;;10.68;94.97
77662;BME280;69666;52.136;5.424;2023-12-28T11:20:30;101047.63;;;10.65;93.17
77662;BME280;69666;52.136;5.424;2023-12-28T11:23:00;101059.47;;;10.64;94.75
77662;BME280;69666;52.136;5.424;2023-12-28T11:25:32;101036.88;;;10.65;95.46
77662;BME280;69666;52.136;5.424;2023-12-28T11:28:12;101047.44;;;10.67;95.63
77662;BME280;69666;52.136;5.424;2023-12-28T11:30:43;101043.06;;;10.66;94.13
77662;BME280;69666;52.136;5.424;2023-12-28T11:33:12;101026.91;;;10.66;95.79
77662;BME280;69666;52.136;5.424;2023-12-28T11:35:42;101036.66;;;10.60;93.10
77662;BME280;69666;52.136;5.424;2023-12-28T11:38:16;101032.50;;;10.64;94.06
77662;BME280;69666;52.136;5.424;2023-12-28T11:40:47;101036.88;;;10.65;94.81
77662;BME280;69666;52.136;5.424;2023-12-28T11:43:21;101039.53;;;10.72;95.68
77662;BME280;69666;52.136;5.424;2023-12-28T11:45:55;101045.34;;;10.75;95.41
77662;BME280;69666;52.136;5.424;2023-12-28T11:48:26;101040.78;;;10.69;92.94
77662;BME280;69666;52.136;5.424;2023-12-28T11:50:59;101041.00;;;10.68;92.66
77662;BME280;69666;52.136;5.424;2023-12-28T11:53:33;101047.63;;;10.78;95.51
77662;BME280;69666;52.136;5.424;2023-12-28T11:56:03;101054.03;;;10.77;94.40
77662;BME280;69666;52.136;5.424;2023-12-28T11:58:37;101038.09;;;10.69;93.75
77662;BME280;69666;52.136;5.424;2023-12-28T12:01:06;101040.38;;;10.66;93.31
77662;BME280;69666;52.136;5.424;2023-12-28T12:03:36;101027.75;;;10.66;94.58
77662;BME280;69666;52.136;5.424;2023-12-28T12:06:07;101036.25;;;10.63;92.69
77662;BME280;69666;52.136;5.424;2023-12-28T12:08:36;101036.25;;;10.63;94.22
77662;BME280;69666;52.136;5.424;2023-12-28T12:11:06;101042.25;;;10.65;94.61
77662;BME280;69666;52.136;5.424;2023-12-28T12:13:36;101030.66;;;10.65;94.46
77662;BME280;69666;52.136;5.424;2023-12-28T12:16:05;101026.28;;;10.70;95.59
77662;BME280;69666;52.136;5.424;2023-12-28T12:18:36;101027.94;;;10.71;95.22
77662;BME280;69666;52.136;5.424;2023-12-28T12:21:06;101020.88;;;10.70;94.62
77662;BME280;69666;52.136;5.424;2023-12-28T12:23:35;101019.84;;;10.71;95.00
77662;BME280;69666;52.136;5.424;2023-12-28T12:26:05;101001.00;;;10.71;93.95
77662;BME280;69666;52.136;5.424;2023-12-28T12:28:34;101001.59;;;10.73;93.14
77662;BME280;69666;52.136;5.424;2023-12-28T12:31:04;101008.44;;;10.76;94.09
77662;BME280;69666;52.136;5.424;2023-12-28T12:33:34;101009.88;;;10.78;94.74
77662;BME280;69666;52.136;5.424;2023-12-28T12:36:04;100999.28;;;10.83;95.60
77662;BME280;69666;52.136;5.424;2023-12-28T12:38:34;101015.47;;;10.83;94.67
77662;BME280;69666;52.136;5.424;2023-12-28T12:41:04;101012.38;;;10.80;94.88
77662;BME280;69666;52.136;5.424;2023-12-28T12:43:34;101004.69;;;10.77;93.86
77662;BME280;69666;52.136;5.424;2023-12-28T12:46:04;101017.53;;;10.81;93.91
77662;BME280;69666;52.136;5.424;2023-12-28T12:48:34;101010.06;;;10.83;93.48
77662;BME280;69666;52.136;5.424;2023-12-28T12:51:04;101010.91;;;10.84;94.75
77662;BME280;69666;52.136;5.424;2023-12-28T12:53:35;101009.88;;;10.78;91.58
77662;BME280;69666;52.136;5.424;2023-12-28T12:56:07;101000.53;;;10.81;92.98
77662;BME280;69666;52.136;5.424;2023-12-28T12:58:37;101002.22;;;10.75;93.01
77662;BME280;69666;52.136;5.424;2023-12-28T13:01:10;101002.66;;;10.72;93.10
77662;BME280;69666;52.136;5.424;2023-12-28T13:03:40;100991.88;;;10.72;93.00
77662;BME280;69666;52.136;5.424;2023-12-28T13:06:13;100998.91;;;10.73;93.47